Terminal Aerodrome Forecast
Issued by NWS

Home | Current Version | Previous Version | Text Only | Print | Product List | Glossary Off
Versions: 1 2 3 4 5 6 7 8 9 10 11 12 13 14 15 16 17 18 19 20 21 22 23 24 25 26 27 28 29 30 31 32 33 34 35 36 37 38 39 40 41

000
FTUS45 KGGW 271900 AAA
TAFOLF
TAF AMD
KOLF 271926Z 2719/2818 12008KT P6SM SCT015 BKN060
     FM280300 VRB05KT 6SM BR SCT023 OVC050
     FM281500 07009KT P6SM OVC100=

USA.gov is the U.S. government's official web portal to all federal, state and local government web resources and services.